createdAt,value
2023-02-08T00:00:25.109Z,7.9
2023-02-08T00:05:25.112Z,8.2
2023-02-08T00:10:25.112Z,8.9
2023-02-08T00:15:25.108Z,10.2
2023-02-08T00:20:25.105Z,7.7
2023-02-08T00:25:25.115Z,7.8
2023-02-08T00:30:25.117Z,7.4
2023-02-08T00:35:25.101Z,7
2023-02-08T00:40:25.116Z,7.2
2023-02-08T00:45:25.107Z,6.4
2023-02-08T00:50:25.112Z,7.6
2023-02-08T00:55:25.107Z,5.8
2023-02-08T01:00:25.131Z,4.2
2023-02-08T01:05:25.097Z,5.7
2023-02-08T01:10:25.111Z,4.8
2023-02-08T01:15:25.111Z,4.2
2023-02-08T01:20:25.106Z,8
2023-02-08T01:25:25.105Z,8
2023-02-08T01:30:25.136Z,7.2
2023-02-08T01:35:25.110Z,7.2
2023-02-08T01:40:25.105Z,6.7
2023-02-08T01:45:25.247Z,6.8
2023-02-08T01:50:25.116Z,7.2
2023-02-08T01:55:25.098Z,7.2
2023-02-08T02:00:25.111Z,8.3
2023-02-08T02:05:25.101Z,8
2023-02-08T02:10:25.103Z,7.9
2023-02-08T02:15:25.103Z,9.3
2023-02-08T02:20:25.114Z,8.1
2023-02-08T02:25:25.102Z,6.6
2023-02-08T02:30:25.148Z,7
2023-02-08T02:35:25.102Z,9.6
2023-02-08T02:40:25.107Z,8.3
2023-02-08T02:45:25.111Z,7.3
2023-02-08T02:50:25.111Z,9
2023-02-08T02:55:25.120Z,8
2023-02-08T03:00:25.101Z,7.3
2023-02-08T03:05:25.105Z,8
2023-02-08T03:10:25.110Z,8
2023-02-08T03:15:25.107Z,9.9
2023-02-08T03:20:25.118Z,9.9
2023-02-08T03:25:25.113Z,8.1
2023-02-08T03:30:25.097Z,8.6
2023-02-08T03:35:25.118Z,10.1
2023-02-08T03:40:25.112Z,7.9
2023-02-08T03:45:25.114Z,7.2
2023-02-08T03:50:25.129Z,5.9
2023-02-08T03:55:25.115Z,5.9
2023-02-08T04:00:25.127Z,7.6
2023-02-08T04:05:25.111Z,7.8
2023-02-08T04:10:25.123Z,8.2
2023-02-08T04:15:25.119Z,7.2
2023-02-08T04:20:25.131Z,9.6
2023-02-08T04:25:25.125Z,11.6
2023-02-08T04:30:25.111Z,10.6
2023-02-08T04:35:25.123Z,8.6
2023-02-08T04:40:25.122Z,13.1
2023-02-08T04:45:25.106Z,9.1
2023-02-08T04:50:25.119Z,10.4
2023-02-08T04:55:25.121Z,7.9
2023-02-08T05:00:25.111Z,7.9
2023-02-08T05:05:25.136Z,10.9
2023-02-08T05:10:25.120Z,9.7
2023-02-08T05:15:25.112Z,9.6
2023-02-08T05:20:25.105Z,9.1
2023-02-08T05:25:25.099Z,9.4
2023-02-08T05:30:25.108Z,8.9
2023-02-08T05:35:25.102Z,9.5
2023-02-08T05:40:25.102Z,10.2
2023-02-08T05:45:25.114Z,8.4
2023-02-08T05:50:25.103Z,7.3
2023-02-08T05:55:25.109Z,8.6
2023-02-08T06:00:25.108Z,6.3
2023-02-08T06:05:25.099Z,7.4
2023-02-08T06:10:25.099Z,6
2023-02-08T06:15:25.087Z,10.3
2023-02-08T06:20:25.091Z,8
2023-02-08T06:25:25.094Z,5.3
2023-02-08T06:30:25.104Z,6.4
2023-02-08T06:35:25.094Z,5.5
2023-02-08T06:40:25.094Z,5.9
2023-02-08T06:45:25.105Z,7.2
2023-02-08T06:50:25.105Z,7.3
2023-02-08T06:55:25.101Z,7.3
2023-02-08T07:00:25.106Z,6.8
2023-02-08T07:05:25.105Z,7.4
2023-02-08T07:10:25.101Z,7.5
2023-02-08T07:15:25.099Z,5.6
2023-02-08T07:20:25.099Z,7.8
2023-02-08T07:25:25.100Z,8.4
2023-02-08T07:30:25.094Z,6.9
2023-02-08T07:35:25.102Z,7.2
2023-02-08T07:40:25.128Z,8.1
2023-02-08T07:45:25.100Z,8.2
2023-02-08T07:50:25.129Z,8.4
2023-02-08T07:55:25.105Z,8
2023-02-08T08:00:25.118Z,5.3
2023-02-08T08:05:25.131Z,7.4
2023-02-08T08:10:25.116Z,8.5
2023-02-08T08:15:25.110Z,9
2023-02-08T08:20:25.182Z,11.3
2023-02-08T08:25:25.105Z,9.7
2023-02-08T08:30:25.188Z,9.4
2023-02-08T08:35:25.133Z,11.6
2023-02-08T08:40:25.329Z,12.4
2023-02-08T08:45:25.110Z,11
2023-02-08T08:50:25.116Z,9.9
2023-02-08T08:55:25.113Z,9.9
2023-02-08T09:00:25.113Z,9.9
2023-02-08T09:05:25.110Z,9.3
2023-02-08T09:10:25.109Z,12.2
2023-02-08T09:15:25.108Z,12.5
2023-02-08T09:20:25.104Z,14.5
2023-02-08T09:25:25.107Z,14.5
2023-02-08T09:30:25.109Z,13.2
2023-02-08T09:35:25.110Z,11.9
2023-02-08T09:40:25.125Z,13.7
2023-02-08T09:45:25.114Z,10.6
2023-02-08T09:50:25.121Z,12.4
2023-02-08T09:55:25.111Z,11.5
2023-02-08T10:00:25.121Z,10.6
2023-02-08T10:05:25.101Z,12.6
2023-02-08T10:10:25.107Z,12.6
2023-02-08T10:15:25.120Z,11.1
2023-02-08T10:20:25.115Z,10.8
2023-02-08T10:25:25.112Z,11.8
2023-02-08T10:30:25.131Z,12.7
2023-02-08T10:35:25.107Z,11.5
2023-02-08T10:40:25.111Z,14.8
2023-02-08T10:45:25.143Z,11.4
2023-02-08T10:50:25.102Z,13.5
2023-02-08T10:55:25.117Z,13.2
2023-02-08T11:00:25.097Z,14.2
2023-02-08T11:05:25.147Z,17.2
2023-02-08T11:10:25.108Z,17.2
2023-02-08T11:15:25.111Z,13.9
2023-02-08T11:20:25.105Z,13.1
2023-02-08T11:25:25.111Z,12.4
2023-02-08T11:30:25.136Z,14.9
2023-02-08T11:35:25.108Z,14.1
2023-02-08T11:40:25.104Z,12.7
2023-02-08T11:45:25.108Z,15.6
2023-02-08T11:50:25.109Z,14.9
2023-02-08T11:55:25.149Z,16.8
2023-02-08T12:00:25.117Z,16.5
2023-02-08T12:05:25.105Z,17.8
2023-02-08T12:10:25.113Z,15.4
2023-02-08T12:15:25.120Z,15.4
2023-02-08T12:20:25.127Z,18.4
2023-02-08T12:25:25.108Z,18.1
2023-02-08T12:30:25.124Z,16.8
2023-02-08T12:35:38.995Z,14.4
2023-02-08T12:40:25.101Z,17.7
2023-02-08T12:45:25.096Z,17.5
2023-02-08T12:50:25.101Z,14.2
2023-02-08T12:55:25.105Z,18
2023-02-08T13:00:25.099Z,16.9
2023-02-08T13:05:25.098Z,18.9
2023-02-08T13:10:25.109Z,17.9
2023-02-08T13:15:30.908Z,19.6
2023-02-08T13:20:25.117Z,19.3
2023-02-08T13:25:25.102Z,16.3
2023-02-08T13:30:25.151Z,20.2
2023-02-08T13:35:25.117Z,18.7
2023-02-08T13:40:25.100Z,16.9
2023-02-08T13:45:25.111Z,24.1
2023-02-08T13:50:25.223Z,17.9
2023-02-08T13:55:25.113Z,16.5
2023-02-08T14:00:25.131Z,17.1
2023-02-08T14:05:25.131Z,13
2023-02-08T14:10:25.123Z,16.6
2023-02-08T14:15:25.123Z,15.9
2023-02-08T14:20:25.115Z,14.7
2023-02-08T14:25:25.139Z,12.3
2023-02-08T14:30:25.120Z,14.2
2023-02-08T14:35:25.116Z,17.1
2023-02-08T14:40:25.264Z,18.7
2023-02-08T14:45:25.115Z,19.9
2023-02-08T14:50:25.126Z,17.8
2023-02-08T14:55:25.121Z,16.2
2023-02-08T15:00:25.113Z,19.6
2023-02-08T15:05:25.122Z,19.1
2023-02-08T15:10:25.119Z,20.3
2023-02-08T15:15:25.119Z,17.8
2023-02-08T15:20:25.132Z,17.5
2023-02-08T15:25:25.128Z,16.6
2023-02-08T15:30:25.114Z,16.2
2023-02-08T15:35:25.115Z,17
2023-02-08T15:40:25.115Z,14.4
2023-02-08T15:45:25.121Z,12.3
2023-02-08T15:50:25.117Z,14.2
2023-02-08T15:55:25.123Z,9.8
2023-02-08T16:00:25.159Z,10
2023-02-08T16:05:25.114Z,11.2
2023-02-08T16:10:25.107Z,11.9
2023-02-08T16:15:25.105Z,11.9
2023-02-08T16:20:27.170Z,12
2023-02-08T16:25:25.124Z,10.4
2023-02-08T16:30:25.212Z,12
2023-02-08T16:35:25.128Z,12
2023-02-08T16:40:25.164Z,8.9
2023-02-08T16:45:25.105Z,9.4
2023-02-08T16:50:25.132Z,8.3
2023-02-08T16:55:25.113Z,7.6
2023-02-08T17:00:25.110Z,11.4
2023-02-08T17:05:25.107Z,9.1
2023-02-08T17:10:26.513Z,8.1
2023-02-08T17:15:25.180Z,8.7
2023-02-08T17:20:25.109Z,8.5
2023-02-08T17:25:25.126Z,9.1
2023-02-08T17:30:25.168Z,7.8
2023-02-08T17:35:25.111Z,9.3
2023-02-08T17:40:25.110Z,7.8
2023-02-08T17:45:25.100Z,4.8
2023-02-08T17:50:25.113Z,5.6
2023-02-08T17:55:25.096Z,5.3
2023-02-08T18:00:25.097Z,5.2
2023-02-08T18:05:25.104Z,5.6
2023-02-08T18:10:25.105Z,7.8
2023-02-08T18:15:25.100Z,8.4
2023-02-08T18:20:25.116Z,10.8
2023-02-08T18:25:25.094Z,10.8
2023-02-08T18:30:25.103Z,10.3
2023-02-08T18:35:25.102Z,10.6
2023-02-08T18:40:25.108Z,9.9
2023-02-08T18:45:25.104Z,8.7
2023-02-08T18:50:25.097Z,12.7
2023-02-08T18:55:25.115Z,6.9
2023-02-08T19:00:25.114Z,7.6
2023-02-08T19:05:25.104Z,8.9
2023-02-08T19:10:25.113Z,9.3
2023-02-08T19:15:25.121Z,9
2023-02-08T19:20:25.097Z,11.3
2023-02-08T19:25:25.095Z,9.4
2023-02-08T19:30:25.097Z,9.3
2023-02-08T19:35:25.100Z,9.9
2023-02-08T19:40:25.114Z,8.3
2023-02-08T19:45:25.182Z,8.6
2023-02-08T19:50:25.097Z,8.3
2023-02-08T19:55:25.105Z,8.3
2023-02-08T20:00:25.100Z,6.4
2023-02-08T20:05:25.102Z,8.8
2023-02-08T20:10:25.106Z,8.9
2023-02-08T20:15:25.098Z,9.7
2023-02-08T20:20:25.114Z,9.8
2023-02-08T20:25:25.113Z,11.1
2023-02-08T20:30:25.118Z,11.4
2023-02-08T20:35:25.116Z,10.6
2023-02-08T20:40:25.113Z,10.5
2023-02-08T20:45:25.098Z,8.8
2023-02-08T20:50:26.022Z,8.6
2023-02-08T20:55:25.102Z,11.2
2023-02-08T21:00:33.427Z,11.2
2023-02-08T21:05:25.112Z,10.1
2023-02-08T21:10:25.104Z,7.7
2023-02-08T21:15:25.200Z,7.8
2023-02-08T21:20:25.112Z,7.8
2023-02-08T21:25:25.140Z,7.5
2023-02-08T21:30:25.129Z,6.6
2023-02-08T21:35:25.108Z,6
2023-02-08T21:40:25.104Z,5.5
2023-02-08T21:45:25.100Z,8.1
2023-02-08T21:50:25.104Z,8.1
2023-02-08T21:55:25.109Z,9.2
2023-02-08T22:00:25.103Z,9.5
2023-02-08T22:05:25.104Z,10.5
2023-02-08T22:10:25.116Z,9.8
2023-02-08T22:15:25.104Z,8.8
2023-02-08T22:20:25.111Z,8.9
2023-02-08T22:25:25.098Z,9.7
2023-02-08T22:30:25.694Z,9
2023-02-08T22:35:25.115Z,9.3
2023-02-08T22:40:25.112Z,10
2023-02-08T22:45:25.111Z,6.9
2023-02-08T22:50:25.113Z,6.1
2023-02-08T22:55:25.116Z,5.8
2023-02-08T23:00:25.121Z,9
2023-02-08T23:05:25.116Z,9.2
2023-02-08T23:10:25.109Z,9.1
2023-02-08T23:15:25.106Z,7.9
2023-02-08T23:20:25.112Z,5.5
2023-02-08T23:25:25.105Z,4.9
2023-02-08T23:30:25.113Z,4.8
2023-02-08T23:35:25.100Z,5
2023-02-08T23:40:25.110Z,6
2023-02-08T23:45:25.108Z,4.6
2023-02-08T23:50:25.104Z,5.8
2023-02-08T23:55:25.098Z,6.8
